sensor_id;sensor_type;location;lat;lon;timestamp;temperature;humidity
38941;DHT22;43236;47.208;7.518;2023-05-07T00:00:02;17.80;99.90
38941;DHT22;43236;47.208;7.518;2023-05-07T00:02:52;18.00;99.90
38941;DHT22;43236;47.208;7.518;2023-05-07T00:05:39;17.90;99.90
38941;DHT22;43236;47.208;7.518;2023-05-07T00:08:27;17.80;99.90
38941;DHT22;43236;47.208;7.518;2023-05-07T00:11:13;18.30;99.90
38941;DHT22;43236;47.208;7.518;2023-05-07T00:14:00;17.00;99.90
38941;DHT22;43236;47.208;7.518;2023-05-07T00:16:49;18.00;99.90
38941;DHT22;43236;47.208;7.518;2023-05-07T00:19:36;18.00;99.90
38941;DHT22;43236;47.208;7.518;2023-05-07T00:22:22;18.50;99.90
38941;DHT22;43236;47.208;7.518;2023-05-07T00:25:09;18.10;99.90
38941;DHT22;43236;47.208;7.518;2023-05-07T00:27:56;17.70;99.90
38941;DHT22;43236;47.208;7.518;2023-05-07T00:30:48;17.80;99.90
38941;DHT22;43236;47.208;7.518;2023-05-07T00:33:37;17.50;99.90
38941;DHT22;43236;47.208;7.518;2023-05-07T00:36:24;17.70;99.90
38941;DHT22;43236;47.208;7.518;2023-05-07T00:39:11;18.10;99.90
38941;DHT22;43236;47.208;7.518;2023-05-07T00:41:58;17.60;99.90
38941;DHT22;43236;47.208;7.518;2023-05-07T00:44:46;17.20;99.90
38941;DHT22;43236;47.208;7.518;2023-05-07T00:47:33;17.50;99.90
38941;DHT22;43236;47.208;7.518;2023-05-07T00:50:21;17.60;99.90
38941;DHT22;43236;47.208;7.518;2023-05-07T00:53:08;19.00;99.90
38941;DHT22;43236;47.208;7.518;2023-05-07T00:55:55;18.10;99.90
38941;DHT22;43236;47.208;7.518;2023-05-07T00:58:42;18.00;99.90
38941;DHT22;43236;47.208;7.518;2023-05-07T01:01:29;17.40;99.90
38941;DHT22;43236;47.208;7.518;2023-05-07T01:04:16;18.90;99.90
38941;DHT22;43236;47.208;7.518;2023-05-07T01:07:04;17.40;99.90
38941;DHT22;43236;47.208;7.518;2023-05-07T01:09:51;17.20;99.90
38941;DHT22;43236;47.208;7.518;2023-05-07T01:12:38;17.80;99.90
38941;DHT22;43236;47.208;7.518;2023-05-07T01:15:26;17.60;99.90
38941;DHT22;43236;47.208;7.518;2023-05-07T01:18:13;18.50;99.90
38941;DHT22;43236;47.208;7.518;2023-05-07T01:21:00;17.30;99.90
38941;DHT22;43236;47.208;7.518;2023-05-07T01:23:49;18.20;99.90
38941;DHT22;43236;47.208;7.518;2023-05-07T01:26:36;17.30;99.90
38941;DHT22;43236;47.208;7.518;2023-05-07T01:29:23;17.10;99.90
38941;DHT22;43236;47.208;7.518;2023-05-07T01:32:10;18.30;99.90
38941;DHT22;43236;47.208;7.518;2023-05-07T01:34:58;16.90;99.90
38941;DHT22;43236;47.208;7.518;2023-05-07T01:37:45;16.60;99.90
38941;DHT22;43236;47.208;7.518;2023-05-07T01:40:34;16.70;99.90
38941;DHT22;43236;47.208;7.518;2023-05-07T01:43:21;16.40;99.90
38941;DHT22;43236;47.208;7.518;2023-05-07T01:46:08;16.30;99.90
38941;DHT22;43236;47.208;7.518;2023-05-07T01:48:56;16.80;99.90
38941;DHT22;43236;47.208;7.518;2023-05-07T01:51:43;16.50;99.90
38941;DHT22;43236;47.208;7.518;2023-05-07T01:54:30;16.80;99.90
38941;DHT22;43236;47.208;7.518;2023-05-07T01:57:18;16.40;99.90
38941;DHT22;43236;47.208;7.518;2023-05-07T02:00:05;18.50;99.90
38941;DHT22;43236;47.208;7.518;2023-05-07T02:02:54;16.80;99.90
38941;DHT22;43236;47.208;7.518;2023-05-07T02:05:42;16.20;99.90
38941;DHT22;43236;47.208;7.518;2023-05-07T02:08:28;16.20;99.90
38941;DHT22;43236;47.208;7.518;2023-05-07T02:11:16;17.60;99.90
38941;DHT22;43236;47.208;7.518;2023-05-07T02:14:04;16.70;99.90
38941;DHT22;43236;47.208;7.518;2023-05-07T02:16:51;17.30;99.90
38941;DHT22;43236;47.208;7.518;2023-05-07T02:19:38;18.30;99.90
38941;DHT22;43236;47.208;7.518;2023-05-07T02:22:25;16.30;99.90
38941;DHT22;43236;47.208;7.518;2023-05-07T02:25:12;16.80;99.90
38941;DHT22;43236;47.208;7.518;2023-05-07T02:27:58;16.80;99.90
38941;DHT22;43236;47.208;7.518;2023-05-07T02:30:47;15.90;99.90
38941;DHT22;43236;47.208;7.518;2023-05-07T02:33:33;14.70;99.90
38941;DHT22;43236;47.208;7.518;2023-05-07T02:36:22;17.50;99.90
38941;DHT22;43236;47.208;7.518;2023-05-07T02:39:08;16.10;99.90
38941;DHT22;43236;47.208;7.518;2023-05-07T02:41:55;17.50;99.90
38941;DHT22;43236;47.208;7.518;2023-05-07T02:44:42;17.10;99.90
38941;DHT22;43236;47.208;7.518;2023-05-07T02:47:30;17.00;99.90
38941;DHT22;43236;47.208;7.518;2023-05-07T02:50:17;17.20;99.90
38941;DHT22;43236;47.208;7.518;2023-05-07T02:53:04;17.90;99.90
38941;DHT22;43236;47.208;7.518;2023-05-07T02:55:51;17.10;99.90
38941;DHT22;43236;47.208;7.518;2023-05-07T02:58:38;15.70;99.90
38941;DHT22;43236;47.208;7.518;2023-05-07T03:01:25;16.90;99.90
38941;DHT22;43236;47.208;7.518;2023-05-07T03:04:13;17.40;99.90
38941;DHT22;43236;47.208;7.518;2023-05-07T03:07:01;16.70;99.90
38941;DHT22;43236;47.208;7.518;2023-05-07T03:09:48;17.20;99.90
38941;DHT22;43236;47.208;7.518;2023-05-07T03:12:34;16.40;99.90
38941;DHT22;43236;47.208;7.518;2023-05-07T03:15:21;17.80;99.90
38941;DHT22;43236;47.208;7.518;2023-05-07T03:18:08;17.80;99.90
38941;DHT22;43236;47.208;7.518;2023-05-07T03:20:57;17.90;99.90
38941;DHT22;43236;47.208;7.518;2023-05-07T03:23:44;17.40;99.90
38941;DHT22;43236;47.208;7.518;2023-05-07T03:26:31;16.70;99.90
38941;DHT22;43236;47.208;7.518;2023-05-07T03:29:17;17.10;99.90
38941;DHT22;43236;47.208;7.518;2023-05-07T03:32:05;15.90;99.90
38941;DHT22;43236;47.208;7.518;2023-05-07T03:34:52;17.90;99.90
38941;DHT22;43236;47.208;7.518;2023-05-07T03:40:27;17.60;99.90
38941;DHT22;43236;47.208;7.518;2023-05-07T03:43:14;15.30;99.90
38941;DHT22;43236;47.208;7.518;2023-05-07T03:46:01;16.10;99.90
38941;DHT22;43236;47.208;7.518;2023-05-07T03:48:48;17.50;99.90
38941;DHT22;43236;47.208;7.518;2023-05-07T03:51:35;17.30;99.90
38941;DHT22;43236;47.208;7.518;2023-05-07T03:54:22;16.70;99.90
38941;DHT22;43236;47.208;7.518;2023-05-07T03:57:10;15.40;99.90
38941;DHT22;43236;47.208;7.518;2023-05-07T03:59:57;15.40;99.90
38941;DHT22;43236;47.208;7.518;2023-05-07T04:02:44;16.20;99.90
38941;DHT22;43236;47.208;7.518;2023-05-07T04:05:30;17.30;99.90
38941;DHT22;43236;47.208;7.518;2023-05-07T04:08:17;16.00;99.90
38941;DHT22;43236;47.208;7.518;2023-05-07T04:11:04;16.40;99.90
38941;DHT22;43236;47.208;7.518;2023-05-07T04:13:52;15.50;99.90
38941;DHT22;43236;47.208;7.518;2023-05-07T04:16:39;15.40;99.90
38941;DHT22;43236;47.208;7.518;2023-05-07T04:19:26;15.40;99.90
38941;DHT22;43236;47.208;7.518;2023-05-07T04:22:13;17.00;99.90
38941;DHT22;43236;47.208;7.518;2023-05-07T04:25:00;14.40;99.90
38941;DHT22;43236;47.208;7.518;2023-05-07T04:27:47;15.50;99.90
38941;DHT22;43236;47.208;7.518;2023-05-07T04:30:35;15.80;99.90
38941;DHT22;43236;47.208;7.518;2023-05-07T04:33:22;16.10;99.90
38941;DHT22;43236;47.208;7.518;2023-05-07T04:36:09;14.90;99.90
38941;DHT22;43236;47.208;7.518;2023-05-07T04:38:56;16.50;99.90
38941;DHT22;43236;47.208;7.518;2023-05-07T04:41:43;14.40;99.90
38941;DHT22;43236;47.208;7.518;2023-05-07T04:44:30;16.30;99.90
38941;DHT22;43236;47.208;7.518;2023-05-07T04:47:18;15.60;99.90
38941;DHT22;43236;47.208;7.518;2023-05-07T04:50:06;16.60;99.90
38941;DHT22;43236;47.208;7.518;2023-05-07T04:52:53;16.20;99.90
38941;DHT22;43236;47.208;7.518;2023-05-07T04:55:40;14.80;99.90
38941;DHT22;43236;47.208;7.518;2023-05-07T04:58:27;17.20;99.90
38941;DHT22;43236;47.208;7.518;2023-05-07T05:01:17;16.70;99.90
38941;DHT22;43236;47.208;7.518;2023-05-07T05:04:05;17.60;99.90
38941;DHT22;43236;47.208;7.518;2023-05-07T05:06:52;16.50;99.90
38941;DHT22;43236;47.208;7.518;2023-05-07T05:09:38;18.20;99.90
38941;DHT22;43236;47.208;7.518;2023-05-07T05:12:25;16.10;99.90
38941;DHT22;43236;47.208;7.518;2023-05-07T05:15:12;15.80;99.90
38941;DHT22;43236;47.208;7.518;2023-05-07T05:17:59;15.80;99.90
38941;DHT22;43236;47.208;7.518;2023-05-07T05:20:47;16.80;99.90
38941;DHT22;43236;47.208;7.518;2023-05-07T05:23:34;15.60;99.90
38941;DHT22;43236;47.208;7.518;2023-05-07T05:26:21;17.90;99.90
38941;DHT22;43236;47.208;7.518;2023-05-07T05:29:08;17.40;99.90
38941;DHT22;43236;47.208;7.518;2023-05-07T05:31:55;16.90;99.90
38941;DHT22;43236;47.208;7.518;2023-05-07T05:34:42;17.20;99.90
38941;DHT22;43236;47.208;7.518;2023-05-07T05:37:31;17.20;99.90
38941;DHT22;43236;47.208;7.518;2023-05-07T05:40:17;15.90;99.90
38941;DHT22;43236;47.208;7.518;2023-05-07T05:43:05;15.90;99.90
38941;DHT22;43236;47.208;7.518;2023-05-07T05:45:52;17.90;99.90
38941;DHT22;43236;47.208;7.518;2023-05-07T05:48:39;18.00;99.90
38941;DHT22;43236;47.208;7.518;2023-05-07T05:51:26;17.90;99.90
38941;DHT22;43236;47.208;7.518;2023-05-07T05:54:14;17.50;99.90
38941;DHT22;43236;47.208;7.518;2023-05-07T05:57:01;17.40;99.90
38941;DHT22;43236;47.208;7.518;2023-05-07T05:59:49;16.90;99.90
38941;DHT22;43236;47.208;7.518;2023-05-07T06:02:36;18.50;99.90
38941;DHT22;43236;47.208;7.518;2023-05-07T06:05:23;18.30;99.90
38941;DHT22;43236;47.208;7.518;2023-05-07T06:08:10;18.20;99.90
38941;DHT22;43236;47.208;7.518;2023-05-07T06:10:58;17.30;99.90
38941;DHT22;43236;47.208;7.518;2023-05-07T06:13:45;15.30;99.90
38941;DHT22;43236;47.208;7.518;2023-05-07T06:16:32;18.50;99.90
38941;DHT22;43236;47.208;7.518;2023-05-07T06:19:18;18.70;99.90
38941;DHT22;43236;47.208;7.518;2023-05-07T06:22:08;18.10;99.90
38941;DHT22;43236;47.208;7.518;2023-05-07T06:24:55;17.10;99.90
38941;DHT22;43236;47.208;7.518;2023-05-07T06:27:43;18.10;99.90
38941;DHT22;43236;47.208;7.518;2023-05-07T06:30:30;18.30;99.90
38941;DHT22;43236;47.208;7.518;2023-05-07T06:33:17;17.40;99.90
38941;DHT22;43236;47.208;7.518;2023-05-07T06:36:05;17.60;99.90
38941;DHT22;43236;47.208;7.518;2023-05-07T06:38:52;17.30;99.90
38941;DHT22;43236;47.208;7.518;2023-05-07T06:41:39;17.70;99.90
38941;DHT22;43236;47.208;7.518;2023-05-07T06:44:27;18.50;99.90
38941;DHT22;43236;47.208;7.518;2023-05-07T06:47:14;18.60;99.90
38941;DHT22;43236;47.208;7.518;2023-05-07T06:50:01;17.60;99.90
38941;DHT22;43236;47.208;7.518;2023-05-07T06:52:48;17.60;99.90
38941;DHT22;43236;47.208;7.518;2023-05-07T06:55:35;19.40;99.90
38941;DHT22;43236;47.208;7.518;2023-05-07T06:58:23;17.80;99.90
38941;DHT22;43236;47.208;7.518;2023-05-07T07:01:11;17.80;99.90
38941;DHT22;43236;47.208;7.518;2023-05-07T07:03:58;17.90;99.90
38941;DHT22;43236;47.208;7.518;2023-05-07T07:06:46;18.30;99.90
38941;DHT22;43236;47.208;7.518;2023-05-07T07:09:33;18.20;99.90
38941;DHT22;43236;47.208;7.518;2023-05-07T07:12:19;19.40;99.90
38941;DHT22;43236;47.208;7.518;2023-05-07T07:15:08;19.60;99.90
38941;DHT22;43236;47.208;7.518;2023-05-07T07:17:57;18.40;99.90
38941;DHT22;43236;47.208;7.518;2023-05-07T07:20:44;18.30;99.90
38941;DHT22;43236;47.208;7.518;2023-05-07T07:23:33;18.70;99.90
38941;DHT22;43236;47.208;7.518;2023-05-07T07:26:20;18.80;99.90
38941;DHT22;43236;47.208;7.518;2023-05-07T07:29:07;18.80;99.90
38941;DHT22;43236;47.208;7.518;2023-05-07T07:31:54;20.00;99.90
38941;DHT22;43236;47.208;7.518;2023-05-07T07:34:42;18.90;99.90
38941;DHT22;43236;47.208;7.518;2023-05-07T07:37:29;19.20;99.90
38941;DHT22;43236;47.208;7.518;2023-05-07T07:40:16;19.20;99.90
38941;DHT22;43236;47.208;7.518;2023-05-07T07:43:02;19.10;99.90
38941;DHT22;43236;47.208;7.518;2023-05-07T07:45:50;19.00;99.90
38941;DHT22;43236;47.208;7.518;2023-05-07T07:48:37;19.00;99.90
38941;DHT22;43236;47.208;7.518;2023-05-07T07:51:25;19.20;99.90
38941;DHT22;43236;47.208;7.518;2023-05-07T07:54:13;20.40;99.90
38941;DHT22;43236;47.208;7.518;2023-05-07T07:57:00;19.40;99.90
38941;DHT22;43236;47.208;7.518;2023-05-07T07:59:47;19.60;98.80
38941;DHT22;43236;47.208;7.518;2023-05-07T08:02:33;19.90;98.80
38941;DHT22;43236;47.208;7.518;2023-05-07T08:05:20;19.60;98.20
38941;DHT22;43236;47.208;7.518;2023-05-07T08:08:09;19.70;97.50
38941;DHT22;43236;47.208;7.518;2023-05-07T08:10:55;20.20;98.80
38941;DHT22;43236;47.208;7.518;2023-05-07T08:13:42;19.90;97.20
38941;DHT22;43236;47.208;7.518;2023-05-07T08:16:30;19.20;96.90
38941;DHT22;43236;47.208;7.518;2023-05-07T08:19:17;19.60;96.90
38941;DHT22;43236;47.208;7.518;2023-05-07T08:22:05;19.90;97.20
38941;DHT22;43236;47.208;7.518;2023-05-07T08:24:53;19.70;96.60
38941;DHT22;43236;47.208;7.518;2023-05-07T08:27:40;20.30;96.80
38941;DHT22;43236;47.208;7.518;2023-05-07T08:30:27;20.10;96.40
38941;DHT22;43236;47.208;7.518;2023-05-07T08:33:14;19.70;96.40
38941;DHT22;43236;47.208;7.518;2023-05-07T08:36:01;22.10;98.20
38941;DHT22;43236;47.208;7.518;2023-05-07T08:38:47;19.90;96.50
38941;DHT22;43236;47.208;7.518;2023-05-07T08:41:36;20.70;96.90
38941;DHT22;43236;47.208;7.518;2023-05-07T08:44:23;20.30;96.70
38941;DHT22;43236;47.208;7.518;2023-05-07T08:47:13;19.50;96.20
38941;DHT22;43236;47.208;7.518;2023-05-07T08:50:00;19.40;95.90
38941;DHT22;43236;47.208;7.518;2023-05-07T08:52:47;19.90;95.70
38941;DHT22;43236;47.208;7.518;2023-05-07T08:55:36;21.10;96.00
38941;DHT22;43236;47.208;7.518;2023-05-07T08:58:24;21.10;95.70
38941;DHT22;43236;47.208;7.518;2023-05-07T09:01:12;19.80;95.80
38941;DHT22;43236;47.208;7.518;2023-05-07T09:04:00;20.60;95.20
38941;DHT22;43236;47.208;7.518;2023-05-07T09:06:46;20.90;95.40
38941;DHT22;43236;47.208;7.518;2023-05-07T09:09:33;21.50;95.20
38941;DHT22;43236;47.208;7.518;2023-05-07T09:12:21;21.50;95.50
38941;DHT22;43236;47.208;7.518;2023-05-07T09:15:09;21.60;95.70
38941;DHT22;43236;47.208;7.518;2023-05-07T09:17:59;20.80;95.70
38941;DHT22;43236;47.208;7.518;2023-05-07T09:20:46;21.50;95.50
38941;DHT22;43236;47.208;7.518;2023-05-07T09:23:33;19.90;95.10
38941;DHT22;43236;47.208;7.518;2023-05-07T09:26:20;20.50;94.60
38941;DHT22;43236;47.208;7.518;2023-05-07T09:29:08;21.60;94.80
38941;DHT22;43236;47.208;7.518;2023-05-07T09:31:58;21.60;93.90
38941;DHT22;43236;47.208;7.518;2023-05-07T09:34:44;22.00;94.50
38941;DHT22;43236;47.208;7.518;2023-05-07T09:37:32;21.20;94.70
38941;DHT22;43236;47.208;7.518;2023-05-07T09:40:20;21.80;94.70
38941;DHT22;43236;47.208;7.518;2023-05-07T09:43:10;21.70;94.80
38941;DHT22;43236;47.208;7.518;2023-05-07T09:45:57;21.70;94.70
38941;DHT22;43236;47.208;7.518;2023-05-07T09:48:46;21.80;94.50
38941;DHT22;43236;47.208;7.518;2023-05-07T09:51:35;21.50;94.30
38941;DHT22;43236;47.208;7.518;2023-05-07T09:54:23;21.90;94.40
38941;DHT22;43236;47.208;7.518;2023-05-07T09:57:10;21.80;94.60
38941;DHT22;43236;47.208;7.518;2023-05-07T09:59:57;21.60;94.50
38941;DHT22;43236;47.208;7.518;2023-05-07T10:02:44;22.20;94.50
38941;DHT22;43236;47.208;7.518;2023-05-07T10:05:35;21.90;94.20
38941;DHT22;43236;47.208;7.518;2023-05-07T10:08:22;21.30;94.50
38941;DHT22;43236;47.208;7.518;2023-05-07T10:11:09;20.80;93.40
38941;DHT22;43236;47.208;7.518;2023-05-07T10:13:56;21.30;93.50
38941;DHT22;43236;47.208;7.518;2023-05-07T10:16:43;21.50;93.60
38941;DHT22;43236;47.208;7.518;2023-05-07T10:19:30;21.50;93.60
38941;DHT22;43236;47.208;7.518;2023-05-07T10:22:19;22.50;93.60
38941;DHT22;43236;47.208;7.518;2023-05-07T10:25:09;22.70;94.20
38941;DHT22;43236;47.208;7.518;2023-05-07T10:28:01;22.60;93.50
38941;DHT22;43236;47.208;7.518;2023-05-07T10:30:55;21.70;92.00
38941;DHT22;43236;47.208;7.518;2023-05-07T10:33:46;21.20;91.60
38941;DHT22;43236;47.208;7.518;2023-05-07T10:36:35;22.80;92.80
38941;DHT22;43236;47.208;7.518;2023-05-07T10:39:24;23.00;92.60
38941;DHT22;43236;47.208;7.518;2023-05-07T10:42:12;22.70;92.50
38941;DHT22;43236;47.208;7.518;2023-05-07T10:45:10;22.90;92.20
38941;DHT22;43236;47.208;7.518;2023-05-07T10:48:08;23.00;92.20
38941;DHT22;43236;47.208;7.518;2023-05-07T11:00:40;23.10;91.40
38941;DHT22;43236;47.208;7.518;2023-05-07T11:03:27;23.90;91.90
38941;DHT22;43236;47.208;7.518;2023-05-07T11:06:14;23.40;91.20
38941;DHT22;43236;47.208;7.518;2023-05-07T11:09:01;22.60;89.30
38941;DHT22;43236;47.208;7.518;2023-05-07T11:11:49;23.90;90.30
38941;DHT22;43236;47.208;7.518;2023-05-07T11:14:44;23.30;87.10
38941;DHT22;43236;47.208;7.518;2023-05-07T11:17:32;23.60;87.00
38941;DHT22;43236;47.208;7.518;2023-05-07T11:20:20;23.60;87.10
38941;DHT22;43236;47.208;7.518;2023-05-07T11:23:07;22.10;84.70
38941;DHT22;43236;47.208;7.518;2023-05-07T11:25:57;25.50;88.00
38941;DHT22;43236;47.208;7.518;2023-05-07T11:28:45;23.90;87.20
38941;DHT22;43236;47.208;7.518;2023-05-07T11:31:32;23.80;86.30
38941;DHT22;43236;47.208;7.518;2023-05-07T11:34:24;24.00;89.10
38941;DHT22;43236;47.208;7.518;2023-05-07T11:37:11;24.80;90.20
38941;DHT22;43236;47.208;7.518;2023-05-07T11:40:04;24.30;87.30
38941;DHT22;43236;47.208;7.518;2023-05-07T11:42:52;24.60;86.10
38941;DHT22;43236;47.208;7.518;2023-05-07T11:45:39;24.50;85.80
38941;DHT22;43236;47.208;7.518;2023-05-07T11:48:25;24.20;85.20
38941;DHT22;43236;47.208;7.518;2023-05-07T11:51:14;24.20;84.50
38941;DHT22;43236;47.208;7.518;2023-05-07T11:54:05;24.40;84.30
38941;DHT22;43236;47.208;7.518;2023-05-07T11:56:54;24.10;84.50
38941;DHT22;43236;47.208;7.518;2023-05-07T11:59:44;24.20;82.80
38941;DHT22;43236;47.208;7.518;2023-05-07T12:02:32;24.00;80.20
38941;DHT22;43236;47.208;7.518;2023-05-07T12:05:20;24.00;78.50
38941;DHT22;43236;47.208;7.518;2023-05-07T12:08:08;24.40;77.20
38941;DHT22;43236;47.208;7.518;2023-05-07T12:10:55;24.40;78.80
38941;DHT22;43236;47.208;7.518;2023-05-07T12:13:42;24.00;79.90
38941;DHT22;43236;47.208;7.518;2023-05-07T12:16:29;24.20;77.20
38941;DHT22;43236;47.208;7.518;2023-05-07T12:19:17;24.20;76.80
38941;DHT22;43236;47.208;7.518;2023-05-07T12:22:04;24.30;77.30
38941;DHT22;43236;47.208;7.518;2023-05-07T12:24:57;24.10;77.30
38941;DHT22;43236;47.208;7.518;2023-05-07T12:27:44;24.20;81.10
38941;DHT22;43236;47.208;7.518;2023-05-07T12:30:38;24.40;78.80
38941;DHT22;43236;47.208;7.518;2023-05-07T12:33:25;23.90;76.90
38941;DHT22;43236;47.208;7.518;2023-05-07T12:36:13;23.90;75.90
38941;DHT22;43236;47.208;7.518;2023-05-07T12:39:00;24.00;77.20
38941;DHT22;43236;47.208;7.518;2023-05-07T12:41:55;24.10;77.90
38941;DHT22;43236;47.208;7.518;2023-05-07T12:44:44;24.00;77.80
38941;DHT22;43236;47.208;7.518;2023-05-07T12:47:31;23.70;76.40
38941;DHT22;43236;47.208;7.518;2023-05-07T12:50:18;24.80;77.50
38941;DHT22;43236;47.208;7.518;2023-05-07T12:53:06;23.40;76.60
38941;DHT22;43236;47.208;7.518;2023-05-07T12:55:54;24.40;76.90
38941;DHT22;43236;47.208;7.518;2023-05-07T12:58:43;21.90;74.20
38941;DHT22;43236;47.208;7.518;2023-05-07T13:01:30;23.00;75.10
38941;DHT22;43236;47.208;7.518;2023-05-07T13:04:17;22.50;74.60
38941;DHT22;43236;47.208;7.518;2023-05-07T13:07:04;23.60;75.40
38941;DHT22;43236;47.208;7.518;2023-05-07T13:09:51;23.20;74.70
38941;DHT22;43236;47.208;7.518;2023-05-07T13:12:38;23.50;74.70
38941;DHT22;43236;47.208;7.518;2023-05-07T13:15:26;23.20;76.20
38941;DHT22;43236;47.208;7.518;2023-05-07T13:18:13;21.80;74.00
38941;DHT22;43236;47.208;7.518;2023-05-07T13:21:01;22.80;75.70
38941;DHT22;43236;47.208;7.518;2023-05-07T13:23:48;22.90;75.80
38941;DHT22;43236;47.208;7.518;2023-05-07T13:26:35;23.00;76.40
38941;DHT22;43236;47.208;7.518;2023-05-07T13:29:22;22.10;74.00
38941;DHT22;43236;47.208;7.518;2023-05-07T13:32:15;23.30;74.60
38941;DHT22;43236;47.208;7.518;2023-05-07T13:35:02;23.20;73.90
38941;DHT22;43236;47.208;7.518;2023-05-07T13:37:49;23.70;74.20
38941;DHT22;43236;47.208;7.518;2023-05-07T13:40:37;23.10;73.60
38941;DHT22;43236;47.208;7.518;2023-05-07T13:43:24;22.70;73.30
38941;DHT22;43236;47.208;7.518;2023-05-07T13:46:11;23.50;73.60
38941;DHT22;43236;47.208;7.518;2023-05-07T13:48:59;22.20;72.80
38941;DHT22;43236;47.208;7.518;2023-05-07T13:51:46;22.90;73.00
38941;DHT22;43236;47.208;7.518;2023-05-07T13:54:33;23.40;75.20
38941;DHT22;43236;47.208;7.518;2023-05-07T13:57:20;22.70;74.40
38941;DHT22;43236;47.208;7.518;2023-05-07T14:00:07;22.70;75.10
38941;DHT22;43236;47.208;7.518;2023-05-07T14:02:55;21.20;74.30
38941;DHT22;43236;47.208;7.518;2023-05-07T14:05:43;22.60;76.60
38941;DHT22;43236;47.208;7.518;2023-05-07T14:08:30;22.90;77.90
38941;DHT22;43236;47.208;7.518;2023-05-07T14:11:17;22.90;78.40
38941;DHT22;43236;47.208;7.518;2023-05-07T14:14:03;22.60;77.80
38941;DHT22;43236;47.208;7.518;2023-05-07T14:16:50;22.50;78.80
38941;DHT22;43236;47.208;7.518;2023-05-07T14:19:37;22.30;78.80
38941;DHT22;43236;47.208;7.518;2023-05-07T14:22:25;22.60;79.80
38941;DHT22;43236;47.208;7.518;2023-05-07T14:25:12;22.30;79.50
38941;DHT22;43236;47.208;7.518;2023-05-07T14:27:59;22.00;78.90
38941;DHT22;43236;47.208;7.518;2023-05-07T14:30:46;22.00;79.60
38941;DHT22;43236;47.208;7.518;2023-05-07T14:33:33;22.20;78.60
38941;DHT22;43236;47.208;7.518;2023-05-07T14:36:20;21.30;77.80
38941;DHT22;43236;47.208;7.518;2023-05-07T14:39:09;22.10;79.20
38941;DHT22;43236;47.208;7.518;2023-05-07T14:41:56;22.00;79.50
38941;DHT22;43236;47.208;7.518;2023-05-07T14:44:43;20.60;78.00
38941;DHT22;43236;47.208;7.518;2023-05-07T14:47:30;21.80;82.20
38941;DHT22;43236;47.208;7.518;2023-05-07T14:50:17;21.60;83.10
38941;DHT22;43236;47.208;7.518;2023-05-07T14:53:04;20.70;84.80
38941;DHT22;43236;47.208;7.518;2023-05-07T14:55:53;21.10;89.60
38941;DHT22;43236;47.208;7.518;2023-05-07T14:58:40;20.10;90.00
38941;DHT22;43236;47.208;7.518;2023-05-07T15:01:27;20.40;86.90
38941;DHT22;43236;47.208;7.518;2023-05-07T15:04:14;20.50;90.40
38941;DHT22;43236;47.208;7.518;2023-05-07T15:07:01;20.30;87.30
38941;DHT22;43236;47.208;7.518;2023-05-07T15:09:48;20.10;89.80
38941;DHT22;43236;47.208;7.518;2023-05-07T15:12:37;21.10;91.50
38941;DHT22;43236;47.208;7.518;2023-05-07T15:15:24;21.10;92.40
38941;DHT22;43236;47.208;7.518;2023-05-07T15:18:11;20.70;92.30
38941;DHT22;43236;47.208;7.518;2023-05-07T15:20:58;20.30;90.60
38941;DHT22;43236;47.208;7.518;2023-05-07T15:23:45;21.30;91.10
38941;DHT22;43236;47.208;7.518;2023-05-07T15:26:32;19.50;88.00
38941;DHT22;43236;47.208;7.518;2023-05-07T15:29:20;21.30;88.90
38941;DHT22;43236;47.208;7.518;2023-05-07T15:32:07;20.40;88.90
38941;DHT22;43236;47.208;7.518;2023-05-07T15:34:54;20.90;91.10
38941;DHT22;43236;47.208;7.518;2023-05-07T15:37:41;19.10;91.30
38941;DHT22;43236;47.208;7.518;2023-05-07T15:40:29;21.20;93.00
38941;DHT22;43236;47.208;7.518;2023-05-07T15:43:16;21.00;93.20
38941;DHT22;43236;47.208;7.518;2023-05-07T15:46:05;19.40;93.30
38941;DHT22;43236;47.208;7.518;2023-05-07T15:48:52;19.10;93.70
38941;DHT22;43236;47.208;7.518;2023-05-07T15:51:39;19.40;94.20
38941;DHT22;43236;47.208;7.518;2023-05-07T15:54:26;18.90;94.40
38941;DHT22;43236;47.208;7.518;2023-05-07T15:57:13;19.60;94.90
38941;DHT22;43236;47.208;7.518;2023-05-07T16:00:00;20.00;95.60
38941;DHT22;43236;47.208;7.518;2023-05-07T16:02:52;19.80;95.70
38941;DHT22;43236;47.208;7.518;2023-05-07T16:05:39;20.70;96.50
38941;DHT22;43236;47.208;7.518;2023-05-07T16:08:26;18.70;96.00
38941;DHT22;43236;47.208;7.518;2023-05-07T16:11:12;20.50;97.80
38941;DHT22;43236;47.208;7.518;2023-05-07T16:16:47;20.50;97.80
38941;DHT22;43236;47.208;7.518;2023-05-07T16:19:35;20.40;98.30
38941;DHT22;43236;47.208;7.518;2023-05-07T16:22:22;18.60;98.10
38941;DHT22;43236;47.208;7.518;2023-05-07T16:27:59;20.00;99.80
38941;DHT22;43236;47.208;7.518;2023-05-07T16:30:45;18.60;99.20
38941;DHT22;43236;47.208;7.518;2023-05-07T16:33:32;20.90;99.90
38941;DHT22;43236;47.208;7.518;2023-05-07T16:36:20;20.80;99.60
38941;DHT22;43236;47.208;7.518;2023-05-07T16:39:08;19.40;98.20
38941;DHT22;43236;47.208;7.518;2023-05-07T16:41:55;18.80;97.70
38941;DHT22;43236;47.208;7.518;2023-05-07T16:44:42;19.50;98.20
38941;DHT22;43236;47.208;7.518;2023-05-07T16:47:29;20.70;97.70
38941;DHT22;43236;47.208;7.518;2023-05-07T16:50:16;19.10;98.30
38941;DHT22;43236;47.208;7.518;2023-05-07T16:53:04;18.90;98.30
38941;DHT22;43236;47.208;7.518;2023-05-07T16:55:51;19.20;98.70
38941;DHT22;43236;47.208;7.518;2023-05-07T16:58:41;19.20;98.80
38941;DHT22;43236;47.208;7.518;2023-05-07T17:01:27;19.50;98.90
38941;DHT22;43236;47.208;7.518;2023-05-07T17:04:17;19.50;99.40
38941;DHT22;43236;47.208;7.518;2023-05-07T17:07:04;19.20;99.20
38941;DHT22;43236;47.208;7.518;2023-05-07T17:09:52;19.80;99.60
38941;DHT22;43236;47.208;7.518;2023-05-07T17:12:39;20.40;99.90
38941;DHT22;43236;47.208;7.518;2023-05-07T17:15:26;20.20;99.90
38941;DHT22;43236;47.208;7.518;2023-05-07T17:18:13;19.80;99.90
38941;DHT22;43236;47.208;7.518;2023-05-07T17:21:00;19.60;99.90
38941;DHT22;43236;47.208;7.518;2023-05-07T17:23:47;20.30;99.90
38941;DHT22;43236;47.208;7.518;2023-05-07T17:26:35;19.60;99.90
38941;DHT22;43236;47.208;7.518;2023-05-07T17:29:23;20.30;99.90
38941;DHT22;43236;47.208;7.518;2023-05-07T17:32:10;19.90;99.90
38941;DHT22;43236;47.208;7.518;2023-05-07T17:34:57;19.20;99.90
38941;DHT22;43236;47.208;7.518;2023-05-07T17:37:44;20.40;99.90
38941;DHT22;43236;47.208;7.518;2023-05-07T17:40:36;20.30;99.90
38941;DHT22;43236;47.208;7.518;2023-05-07T17:43:25;20.00;99.90
38941;DHT22;43236;47.208;7.518;2023-05-07T17:46:11;19.00;99.90
38941;DHT22;43236;47.208;7.518;2023-05-07T17:48:59;19.00;99.90
38941;DHT22;43236;47.208;7.518;2023-05-07T17:51:45;21.10;99.90
38941;DHT22;43236;47.208;7.518;2023-05-07T17:54:33;20.10;99.90